North Chili, NY (14514)

4:21 PM EDT on August 31, 2015 (GMT -0400)
Chili Backyard | | Change Station
CLOSE
Current Station
Personal Weather Station
Location: Rochester, NY
Elevation: 560 ft
Nearby Weather Stations

Elev 560 ft 43.11 °N, 77.77 °W | Updated 53 seconds ago

Partly Cloudy
Partly Cloudy
81.9 °F
Feels Like 86 °F
N
1.0
Wind Variable Wind from West
Gusts 1.0 mph

Today
High -- | Low -- °F
--% Chance of Precip.
Yesterday
High -- | Low -- °F
Precip. -- in
6:34 AM 7:48 PM
Waning Gibbous, 94% visible
Pressure 30.01 in
Visibility 10.0 miles
Clouds Scattered Clouds 5000 ft
Scattered Clouds 25000 ft
Heat Index 86 °F
Dew Point 71 °F
Humidity 69%
Rainfall 0.00 in
Snow Depth Not available.
UV 4 out of 12
Pollen 10.50 out of 12
Air Quality Not available.
Flu Activity Not available.
METAR KROC 311954Z 29012G17KT 10SM SCT050 SCT250 29/19 A3001 RMK AO2 SLP161 T02890189
Pressure 30.01 in
Visibility 10.0 miles
Clouds Scattered Clouds 5000 ft
Scattered Clouds 25000 ft
Heat Index 86 °F
Dew Point 71 °F
Humidity 69%
Rainfall 0.00 in
Snow Depth Not available.
UV 4 out of 12
Pollen 10.50 out of 12
Air Quality Not available.
Flu Activity Not available.
METAR KROC 311954Z 29012G17KT 10SM SCT050 SCT250 29/19 A3001 RMK AO2 SLP161 T02890189

10-Day Weather Forecast

×

Almanac

Astronomy

Aug. 31, 2015 Rise Set
Actual Time
Civil Twilight
Nautical Twilight
Astronomical Twilight
Moon
Length of Visible Light
Length of Day
Tomorrow will be .
, % of the Moon is Illuminated

Today's Extremes

State Highs State Lows

Community

WunderPhotos

Upload Photos

1,851,352 photos uploaded!

WunderBlogs® & News

Nearby

Air Quality

  Air Quality AQ Index Pollutant
Not available.

Snow Depth

Station Depth Elevation

Earthquake Activity

City Distance Mag. Time & Date
Minimum magnitude displayed is 2.5.

Coastal Water Temperatures

Place Temperature

Stations

Nearby Weather Stations

Station Location Temp. Windchill Dew Point Humidity Wind Precip. Elev Updated Type